createdAt,value
2023-03-23T15:57:58.678Z,1.73
2023-03-23T16:00:27.583Z,1.20
2023-03-23T16:03:01.469Z,1.20
2023-03-23T16:05:28.348Z,1.10
2023-03-23T16:07:54.979Z,1.35
2023-03-23T16:10:23.774Z,1.50
2023-03-23T16:12:52.558Z,1.70
2023-03-23T16:15:19.953Z,1.20
2023-03-23T16:17:46.846Z,1.70
2023-03-23T16:20:21.999Z,1.58
2023-03-23T16:22:50.010Z,1.58
2023-03-23T16:25:18.678Z,1.33
2023-03-23T16:27:52.356Z,1.20
2023-03-23T16:30:23.196Z,1.40
2023-03-23T16:32:49.750Z,1.17
2023-03-23T16:35:19.540Z,1.10
2023-03-23T16:37:48.315Z,1.00
2023-03-23T16:40:15.928Z,1.25
2023-03-23T16:42:43.049Z,1.17
2023-03-23T16:45:10.339Z,1.38
2023-03-23T16:47:38.439Z,0.93
2023-03-23T16:50:08.473Z,1.38
2023-03-23T16:52:35.370Z,1.00
2023-03-23T16:55:14.926Z,1.15
2023-03-23T16:57:43.377Z,1.35
2023-03-23T17:00:15.291Z,1.13
2023-03-23T17:02:43.174Z,1.48
2023-03-23T17:05:11.061Z,1.30
2023-03-23T17:07:39.526Z,1.27
2023-03-23T17:10:10.373Z,1.50
2023-03-23T17:12:41.430Z,1.05
2023-03-23T17:15:12.019Z,1.30
2023-03-23T17:17:38.814Z,1.88
2023-03-23T17:20:06.421Z,1.73
2023-03-23T17:22:33.586Z,1.85
2023-03-23T17:25:00.227Z,1.25
2023-03-23T17:27:27.338Z,1.30
2023-03-23T17:29:53.917Z,1.20
2023-03-23T17:32:21.674Z,1.20
2023-03-23T17:34:48.622Z,1.65
2023-03-23T17:37:15.711Z,1.10
2023-03-23T17:39:44.029Z,1.35
2023-03-23T17:42:13.544Z,1.55
2023-03-23T17:44:40.590Z,1.38
2023-03-23T17:47:07.317Z,1.10
2023-03-23T17:49:34.212Z,1.60
2023-03-23T17:52:00.981Z,1.17
2023-03-23T17:54:29.541Z,1.40
2023-03-23T17:56:58.545Z,1.27
2023-03-23T17:59:25.967Z,1.15
2023-03-23T18:01:53.561Z,1.40
2023-03-23T18:04:22.116Z,1.30
2023-03-23T18:06:48.886Z,1.52
2023-03-23T18:09:16.258Z,1.30
2023-03-23T18:11:42.830Z,1.35
2023-03-23T18:14:09.445Z,2.35
2023-03-23T18:16:36.146Z,2.72
2023-03-23T18:19:02.962Z,2.20
2023-03-23T18:21:31.051Z,1.58
2023-03-23T18:23:59.490Z,1.50
2023-03-23T18:26:28.283Z,1.65
2023-03-23T18:28:55.745Z,1.60
2023-03-23T18:31:23.646Z,2.00
2023-03-23T18:33:51.501Z,1.90
2023-03-23T18:36:21.031Z,2.03
2023-03-23T18:38:48.463Z,1.67
2023-03-23T18:41:16.884Z,1.70
2023-03-23T18:43:43.919Z,1.40
2023-03-23T18:46:10.512Z,1.65
2023-03-23T18:48:37.514Z,1.10
2023-03-23T18:51:04.724Z,1.30
2023-03-23T18:53:31.632Z,2.03
2023-03-23T18:56:08.050Z,1.33
2023-03-23T18:58:34.938Z,1.55
2023-03-23T19:01:09.162Z,1.55
2023-03-23T19:03:37.969Z,1.80
2023-03-23T19:06:06.264Z,1.95
2023-03-23T19:08:33.383Z,1.60
2023-03-23T19:11:02.709Z,1.33
2023-03-23T19:13:31.043Z,1.30
2023-03-23T19:15:57.897Z,1.67
2023-03-23T19:18:24.486Z,1.00
2023-03-23T19:23:22.121Z,1.77
2023-03-23T19:25:49.269Z,1.45
2023-03-23T19:30:47.553Z,1.17
2023-03-23T19:33:15.145Z,1.15
2023-03-23T19:35:42.378Z,1.13
2023-03-23T19:38:09.468Z,1.27
2023-03-23T19:40:42.057Z,1.30
2023-03-23T19:43:09.259Z,1.00
2023-03-23T19:45:36.439Z,1.75
2023-03-23T19:48:03.146Z,1.70
2023-03-23T19:50:30.203Z,1.95
2023-03-23T19:52:58.685Z,1.60
2023-03-23T19:55:26.980Z,1.33
2023-03-23T19:57:53.913Z,1.10
2023-03-23T20:00:20.810Z,1.30
2023-03-23T20:02:49.754Z,1.75
2023-03-23T20:05:16.617Z,1.27
2023-03-23T20:07:47.876Z,1.38
2023-03-23T20:10:17.215Z,1.67
2023-03-23T20:12:43.750Z,1.20
2023-03-23T20:15:11.236Z,1.67
2023-03-23T20:17:37.902Z,1.67
2023-03-23T20:20:10.261Z,1.17
2023-03-23T20:22:38.090Z,1.45
2023-03-23T20:25:05.366Z,1.50
2023-03-23T20:27:32.443Z,1.60
2023-03-23T20:29:59.177Z,1.58
2023-03-23T20:32:26.058Z,2.08
2023-03-23T20:34:52.991Z,1.77
2023-03-23T20:37:20.715Z,1.67
2023-03-23T20:39:48.640Z,2.05
2023-03-23T20:42:16.870Z,1.58
2023-03-23T20:44:43.751Z,2.60
2023-03-23T20:47:10.825Z,2.28
2023-03-23T20:49:38.415Z,1.75
2023-03-23T20:52:09.596Z,1.83
2023-03-23T20:54:37.762Z,2.30
2023-03-23T20:57:04.370Z,1.98
2023-03-23T20:59:31.078Z,2.17
2023-03-23T21:01:57.751Z,2.03
2023-03-23T21:04:27.240Z,2.35
2023-03-23T21:06:54.524Z,2.40
2023-03-23T21:09:21.643Z,2.42
2023-03-23T21:11:48.386Z,2.08
2023-03-23T21:14:15.448Z,2.67
2023-03-23T21:16:42.739Z,2.72
2023-03-23T21:19:10.327Z,2.20
2023-03-23T21:21:37.046Z,2.53
2023-03-23T21:24:03.693Z,3.20
2023-03-23T21:26:30.533Z,2.50
2023-03-23T21:29:00.696Z,3.35
2023-03-23T21:31:33.015Z,3.60
2023-03-23T21:33:59.761Z,3.70
2023-03-23T21:36:27.231Z,4.32
2023-03-23T21:38:56.467Z,4.82
2023-03-23T21:41:23.916Z,4.03
2023-03-23T21:43:50.614Z,4.70
2023-03-23T21:46:18.111Z,4.63
2023-03-23T21:48:52.276Z,4.75
2023-03-23T21:51:24.968Z,4.93
2023-03-23T21:53:54.063Z,4.82
2023-03-23T21:56:22.788Z,4.97
2023-03-23T21:58:49.366Z,5.00
2023-03-23T22:01:17.392Z,5.32
2023-03-23T22:03:45.079Z,4.78
2023-03-23T22:06:18.770Z,5.10
2023-03-23T22:08:46.414Z,5.10
2023-03-23T22:11:23.116Z,5.15
2023-03-23T22:13:51.235Z,5.50
2023-03-23T22:16:18.652Z,4.93
2023-03-23T22:18:46.286Z,4.43
2023-03-23T22:21:14.293Z,5.30
2023-03-23T22:23:41.623Z,5.28
2023-03-23T22:26:09.108Z,5.22
2023-03-23T22:28:38.505Z,5.30
2023-03-23T22:31:08.110Z,5.68
2023-03-23T22:33:36.597Z,5.45
2023-03-23T22:36:06.157Z,4.55
2023-03-23T22:38:34.775Z,4.88
2023-03-23T22:41:04.434Z,5.03
2023-03-23T22:43:31.152Z,4.93
2023-03-23T22:45:57.788Z,5.60
2023-03-23T22:48:25.935Z,5.22
2023-03-23T22:50:53.024Z,6.43
2023-03-23T22:53:20.662Z,5.30
2023-03-23T22:55:50.200Z,4.78
2023-03-23T22:58:17.170Z,5.18
2023-03-23T23:00:46.455Z,5.25
2023-03-23T23:03:13.525Z,5.70
2023-03-23T23:05:45.250Z,4.53
2023-03-23T23:08:15.941Z,5.35
2023-03-23T23:10:46.636Z,5.47
2023-03-23T23:13:14.443Z,4.63
2023-03-23T23:15:43.658Z,5.35
2023-03-23T23:18:10.496Z,4.65
2023-03-23T23:20:37.578Z,4.95
2023-03-23T23:23:05.225Z,4.57
2023-03-23T23:25:32.536Z,4.68
2023-03-23T23:28:02.516Z,4.63
2023-03-23T23:30:29.703Z,4.50
2023-03-23T23:32:56.862Z,4.13
2023-03-23T23:35:23.744Z,4.47
2023-03-23T23:37:50.534Z,4.40
2023-03-23T23:40:18.247Z,4.20
2023-03-23T23:42:47.042Z,3.58
2023-03-23T23:45:14.344Z,4.47
2023-03-23T23:47:41.708Z,3.83
2023-03-23T23:50:10.543Z,4.50
2023-03-23T23:52:37.974Z,3.65
2023-03-23T23:55:07.302Z,4.43
2023-03-23T23:57:34.399Z,4.25
